createdAt,value
2022-10-09T00:01:32.745Z,14.52
2022-10-09T00:04:00.528Z,16.08
2022-10-09T00:06:33.258Z,18.40
2022-10-09T00:09:02.087Z,11.98
2022-10-09T00:11:30.399Z,17.70
2022-10-09T00:13:58.186Z,13.27
2022-10-09T00:16:25.591Z,16.27
2022-10-09T00:18:53.036Z,16.67
2022-10-09T00:21:28.263Z,15.93
2022-10-09T00:23:57.096Z,16.80
2022-10-09T00:26:24.533Z,15.18
2022-10-09T00:28:51.744Z,16.65
2022-10-09T00:31:19.404Z,17.60
2022-10-09T00:33:46.249Z,19.17
2022-10-09T00:36:18.524Z,20.77
2022-10-09T00:38:45.327Z,26.88
2022-10-09T00:41:18.956Z,23.83
2022-10-09T00:43:47.624Z,24.83
2022-10-09T00:46:39.550Z,19.70
2022-10-09T00:49:17.433Z,28.15
2022-10-09T00:51:45.934Z,34.83
2022-10-09T00:54:15.739Z,29.88
2022-10-09T00:56:42.945Z,24.83
2022-10-09T00:59:10.573Z,20.23
2022-10-09T01:01:39.050Z,18.30
2022-10-09T01:04:05.797Z,23.23
2022-10-09T01:06:53.988Z,23.20
2022-10-09T01:09:30.597Z,19.73
2022-10-09T01:12:31.626Z,15.98
2022-10-09T01:15:13.408Z,17.92
2022-10-09T01:18:02.838Z,19.95
2022-10-09T01:20:47.946Z,19.23
2022-10-09T01:23:27.205Z,18.98
2022-10-09T01:26:23.064Z,17.02
2022-10-09T01:28:55.145Z,18.55
2022-10-09T01:31:25.236Z,24.40
2022-10-09T01:33:52.237Z,14.35
2022-10-09T01:36:20.231Z,27.08
2022-10-09T01:38:48.150Z,20.35
2022-10-09T01:41:15.182Z,20.60
2022-10-09T01:43:42.042Z,17.42
2022-10-09T01:46:27.464Z,24.23
2022-10-09T01:49:22.265Z,20.77
2022-10-09T01:51:54.119Z,29.70
2022-10-09T01:54:32.391Z,20.75
2022-10-09T01:57:02.218Z,18.88
2022-10-09T01:59:30.675Z,19.20
2022-10-09T02:01:59.282Z,22.85
2022-10-09T02:04:27.115Z,32.28
2022-10-09T02:06:54.960Z,27.25
2022-10-09T02:09:22.382Z,26.13
2022-10-09T02:11:55.556Z,25.63
2022-10-09T02:14:22.556Z,25.40
2022-10-09T02:17:01.500Z,15.20
2022-10-09T02:19:51.316Z,14.73
2022-10-09T02:22:30.416Z,17.05
2022-10-09T02:25:01.547Z,17.15
2022-10-09T02:27:28.839Z,16.75
2022-10-09T02:29:55.833Z,16.33
2022-10-09T02:32:22.873Z,14.98
2022-10-09T02:34:49.581Z,20.85
2022-10-09T02:37:16.290Z,15.30
2022-10-09T02:39:43.788Z,34.38
2022-10-09T02:42:10.900Z,19.30
2022-10-09T02:44:37.630Z,40.05
2022-10-09T02:47:04.369Z,20.88
2022-10-09T02:49:31.072Z,33.58
2022-10-09T02:51:57.760Z,13.85
2022-10-09T02:54:24.509Z,20.85
2022-10-09T02:56:51.197Z,37.88
2022-10-09T02:59:17.884Z,16.65
2022-10-09T03:01:44.709Z,17.33
2022-10-09T03:04:11.520Z,13.48
2022-10-09T03:06:38.209Z,35.22
2022-10-09T03:09:05.027Z,36.90
2022-10-09T03:11:31.808Z,19.33
2022-10-09T03:13:58.562Z,32.60
2022-10-09T03:16:26.548Z,25.63
2022-10-09T03:18:53.975Z,13.32
2022-10-09T03:21:26.107Z,9.77
2022-10-09T03:23:53.631Z,18.67
2022-10-09T03:26:23.134Z,20.92
2022-10-09T03:28:51.412Z,9.77
2022-10-09T03:31:39.776Z,15.70
2022-10-09T03:34:06.978Z,12.50
2022-10-09T03:36:33.630Z,10.38
2022-10-09T03:39:00.326Z,9.30
2022-10-09T03:41:27.057Z,28.58
2022-10-09T03:43:53.820Z,29.52
2022-10-09T03:46:20.596Z,13.73
2022-10-09T03:48:47.377Z,12.85
2022-10-09T03:51:14.106Z,40.03
2022-10-09T03:53:40.759Z,14.93
2022-10-09T03:56:07.565Z,16.15
2022-10-09T03:58:34.307Z,20.13
2022-10-09T04:01:01.027Z,17.20
2022-10-09T04:03:27.769Z,20.73
2022-10-09T04:05:54.541Z,15.43
2022-10-09T04:08:21.241Z,15.25
2022-10-09T04:10:47.992Z,20.45
2022-10-09T04:13:14.713Z,18.15
2022-10-09T04:15:50.858Z,14.77
2022-10-09T04:20:52.090Z,8.27
2022-10-09T04:23:20.297Z,20.88
2022-10-09T04:25:47.021Z,6.32
2022-10-09T04:28:14.085Z,5.88
2022-10-09T04:30:41.098Z,6.90
2022-10-09T04:33:12.597Z,5.50
2022-10-09T04:35:49.832Z,7.53
2022-10-09T04:38:16.572Z,9.68
2022-10-09T04:40:43.359Z,10.65
2022-10-09T04:43:10.354Z,9.60
2022-10-09T04:45:40.827Z,9.80
2022-10-09T04:48:07.587Z,11.82
2022-10-09T04:50:34.339Z,8.70
2022-10-09T04:53:01.033Z,6.38
2022-10-09T04:55:27.730Z,8.55
2022-10-09T04:57:54.418Z,10.32
2022-10-09T05:00:21.104Z,12.82
2022-10-09T05:02:48.054Z,9.60
2022-10-09T05:05:15.013Z,7.95
2022-10-09T05:07:41.737Z,6.63
2022-10-09T05:10:08.809Z,5.82
2022-10-09T05:12:35.480Z,8.05
2022-10-09T05:15:02.164Z,26.08
2022-10-09T05:17:28.918Z,24.17
2022-10-09T05:19:55.712Z,9.52
2022-10-09T05:22:22.384Z,7.50
2022-10-09T05:24:49.085Z,12.65
2022-10-09T05:27:16.109Z,5.60
2022-10-09T05:29:43.202Z,6.15
2022-10-09T05:32:09.899Z,10.73
2022-10-09T05:34:36.635Z,10.88
2022-10-09T05:37:03.512Z,10.88
2022-10-09T05:39:30.290Z,10.18
2022-10-09T05:41:57.295Z,20.80
2022-10-09T05:44:24.313Z,7.95
2022-10-09T05:46:51.072Z,18.45
2022-10-09T05:49:17.781Z,11.15
2022-10-09T05:51:44.544Z,8.80
2022-10-09T05:54:16.434Z,14.75
2022-10-09T05:56:44.338Z,8.70
2022-10-09T05:59:19.436Z,8.90
2022-10-09T06:01:51.670Z,13.73
2022-10-09T06:04:23.507Z,7.72
2022-10-09T06:06:50.672Z,7.82
2022-10-09T06:09:19.824Z,24.55
2022-10-09T06:11:46.481Z,18.65
2022-10-09T06:14:13.843Z,13.48
2022-10-09T06:16:45.364Z,11.07
2022-10-09T06:19:14.631Z,15.23
2022-10-09T06:21:41.522Z,10.05
2022-10-09T06:24:08.583Z,18.75
2022-10-09T06:26:35.564Z,19.40
2022-10-09T06:29:03.208Z,13.25
2022-10-09T06:31:32.014Z,11.02
2022-10-09T06:34:00.623Z,7.75
2022-10-09T06:36:33.366Z,32.40
2022-10-09T06:39:01.901Z,8.23
2022-10-09T06:41:29.669Z,9.95
2022-10-09T06:43:59.008Z,20.75
2022-10-09T06:46:29.134Z,14.85
2022-10-09T06:48:56.015Z,8.43
2022-10-09T06:51:23.839Z,8.93
2022-10-09T06:53:53.078Z,9.30
2022-10-09T06:56:21.727Z,7.82
2022-10-09T06:58:49.188Z,6.68
2022-10-09T07:01:21.975Z,13.05
2022-10-09T07:03:54.305Z,9.95
2022-10-09T07:06:23.635Z,7.25
2022-10-09T07:08:53.391Z,6.85
2022-10-09T07:11:23.115Z,7.45
2022-10-09T07:13:52.953Z,8.32
2022-10-09T07:16:22.710Z,4.55
2022-10-09T07:18:49.683Z,4.90
2022-10-09T07:21:16.736Z,5.28
2022-10-09T07:23:43.936Z,17.33
2022-10-09T07:26:19.325Z,5.57
2022-10-09T07:28:47.265Z,8.67
2022-10-09T07:31:14.643Z,11.43
2022-10-09T07:33:44.192Z,6.95
2022-10-09T07:36:11.447Z,6.65
2022-10-09T07:38:38.203Z,4.68
2022-10-09T07:41:08.194Z,5.38
2022-10-09T07:43:39.608Z,4.22
2022-10-09T07:46:10.798Z,7.40
2022-10-09T07:48:38.121Z,6.22
2022-10-09T07:51:34.450Z,7.30
2022-10-09T07:54:02.225Z,5.60
2022-10-09T07:56:30.104Z,6.07
2022-10-09T07:59:02.041Z,6.63
2022-10-09T08:01:30.592Z,7.68
2022-10-09T08:03:58.055Z,9.52
2022-10-09T08:06:25.622Z,5.93
2022-10-09T08:08:54.081Z,15.57
2022-10-09T08:11:22.181Z,5.40
2022-10-09T08:13:49.941Z,6.63
2022-10-09T08:16:18.437Z,5.68
2022-10-09T08:18:45.573Z,11.52
2022-10-09T08:21:17.496Z,8.38
2022-10-09T08:23:44.480Z,9.77
2022-10-09T08:26:19.888Z,7.35
2022-10-09T08:29:15.716Z,6.93
2022-10-09T08:31:42.631Z,5.90
2022-10-09T08:34:10.517Z,8.70
2022-10-09T08:36:37.199Z,8.93
2022-10-09T08:39:04.184Z,7.93
2022-10-09T08:41:43.136Z,8.50
2022-10-09T08:44:28.060Z,5.85
2022-10-09T08:47:01.804Z,5.72
2022-10-09T08:49:39.609Z,7.25
2022-10-09T08:52:25.039Z,6.35
2022-10-09T08:54:54.550Z,13.50
2022-10-09T08:57:22.986Z,10.48
2022-10-09T08:59:49.680Z,10.23
2022-10-09T09:02:25.526Z,7.43
2022-10-09T09:05:16.269Z,6.63
2022-10-09T09:08:09.543Z,7.05
2022-10-09T09:10:54.288Z,5.75
2022-10-09T09:13:39.096Z,8.15
2022-10-09T09:16:37.036Z,9.05
2022-10-09T09:19:35.170Z,7.03
2022-10-09T09:22:02.266Z,6.72
2022-10-09T09:24:40.303Z,81.03
2022-10-09T09:27:19.282Z,8.07
2022-10-09T09:30:01.523Z,6.50
2022-10-09T09:32:30.411Z,5.53
2022-10-09T09:35:12.731Z,5.35
2022-10-09T09:37:39.712Z,6.03
2022-10-09T09:43:04.939Z,7.05
2022-10-09T09:45:31.955Z,5.00
2022-10-09T09:48:05.937Z,6.35
2022-10-09T09:50:56.459Z,5.40
2022-10-09T09:53:35.841Z,4.25
2022-10-09T09:56:03.383Z,5.72
2022-10-09T09:58:55.177Z,6.22
2022-10-09T10:01:30.111Z,4.95
2022-10-09T10:03:59.694Z,7.00
2022-10-09T10:06:34.206Z,5.18
2022-10-09T10:09:03.663Z,6.53
2022-10-09T10:11:32.461Z,9.70
2022-10-09T10:14:06.784Z,7.95
2022-10-09T10:16:37.459Z,7.40
2022-10-09T10:19:06.064Z,5.85
2022-10-09T10:21:48.757Z,6.03
2022-10-09T10:24:22.758Z,6.57
2022-10-09T10:26:57.815Z,5.03
2022-10-09T10:29:43.961Z,4.72
2022-10-09T10:32:23.118Z,6.85
2022-10-09T10:35:04.738Z,4.82
2022-10-09T10:37:52.540Z,4.45
2022-10-09T10:40:37.963Z,5.93
2022-10-09T10:43:10.465Z,5.18
2022-10-09T10:45:43.101Z,6.28
2022-10-09T10:48:28.822Z,4.00
2022-10-09T10:51:19.079Z,6.73
2022-10-09T10:53:57.787Z,4.15
2022-10-09T10:56:53.794Z,6.88
2022-10-09T10:59:23.627Z,8.23
2022-10-09T11:02:16.393Z,4.07
2022-10-09T11:04:58.229Z,4.38
2022-10-09T11:07:43.216Z,4.88
2022-10-09T11:10:31.565Z,1.50
2022-10-09T11:13:25.784Z,1.95
2022-10-09T11:16:26.725Z,2.80
2022-10-09T11:19:15.388Z,3.90
2022-10-09T11:21:49.287Z,2.70
2022-10-09T11:24:26.880Z,3.03
2022-10-09T11:27:00.865Z,2.33
2022-10-09T11:29:51.990Z,3.65
2022-10-09T11:32:24.530Z,4.18
2022-10-09T11:35:01.327Z,2.00
2022-10-09T11:37:35.061Z,1.35
2022-10-09T11:40:18.083Z,2.33
2022-10-09T11:42:54.117Z,2.53
2022-10-09T11:48:01.710Z,3.05
2022-10-09T11:50:54.286Z,5.28
2022-10-09T11:53:24.388Z,0.65
2022-10-09T11:56:02.850Z,3.03
2022-10-09T11:58:29.763Z,3.88
2022-10-09T12:01:08.873Z,6.35
2022-10-09T12:03:38.239Z,2.63
2022-10-09T12:06:17.288Z,2.08
2022-10-09T12:09:17.465Z,2.90
2022-10-09T12:12:02.376Z,2.70
2022-10-09T12:14:30.518Z,1.52
2022-10-09T12:16:58.418Z,2.40
2022-10-09T12:19:29.656Z,2.72
2022-10-09T12:22:11.387Z,1.73
2022-10-09T12:24:41.606Z,1.52
2022-10-09T12:27:17.253Z,2.35
2022-10-09T12:29:47.494Z,2.63
2022-10-09T12:32:26.030Z,1.95
2022-10-09T12:34:53.955Z,3.30
2022-10-09T12:37:22.672Z,4.25
2022-10-09T12:39:50.292Z,4.15
2022-10-09T12:42:26.794Z,2.65
2022-10-09T12:44:55.863Z,4.35
2022-10-09T12:47:29.906Z,2.50
2022-10-09T12:50:24.384Z,2.92
2022-10-09T12:52:54.718Z,2.75
2022-10-09T12:55:49.768Z,4.13
2022-10-09T12:58:19.504Z,1.23
2022-10-09T13:00:49.045Z,4.13
2022-10-09T13:03:32.460Z,2.13
2022-10-09T13:05:59.906Z,4.88
2022-10-09T13:08:30.793Z,2.20
2022-10-09T13:11:12.810Z,2.53
2022-10-09T13:13:40.133Z,2.97
2022-10-09T13:16:10.513Z,2.65
2022-10-09T13:18:38.048Z,4.50
2022-10-09T13:21:17.625Z,2.47
2022-10-09T13:23:44.368Z,3.30
2022-10-09T13:26:26.295Z,1.95
2022-10-09T13:28:54.150Z,2.00
2022-10-09T13:31:22.345Z,3.70
2022-10-09T13:33:49.510Z,4.50
2022-10-09T13:36:18.473Z,1.92
2022-10-09T13:38:46.473Z,2.38
2022-10-09T13:41:21.286Z,1.85
2022-10-09T13:43:48.962Z,1.60
2022-10-09T13:46:16.437Z,3.25
2022-10-09T13:48:43.271Z,1.67
2022-10-09T13:51:11.235Z,1.73
2022-10-09T13:53:38.368Z,3.53
2022-10-09T13:56:05.942Z,3.88
2022-10-09T13:58:32.614Z,1.92
2022-10-09T14:00:59.569Z,1.13
2022-10-09T14:03:26.467Z,2.78
2022-10-09T14:06:01.496Z,1.92
2022-10-09T14:08:28.425Z,2.70
2022-10-09T14:10:55.502Z,1.85
2022-10-09T14:13:22.247Z,4.43
2022-10-09T14:15:49.102Z,4.93
2022-10-09T14:18:15.786Z,2.63
2022-10-09T14:20:42.491Z,4.18
2022-10-09T14:23:09.338Z,5.82
2022-10-09T14:25:36.166Z,3.55
2022-10-09T14:28:03.513Z,3.30
2022-10-09T14:30:30.346Z,3.67
2022-10-09T14:32:57.428Z,6.10
2022-10-09T14:35:24.938Z,1.92
2022-10-09T14:37:51.757Z,4.70
2022-10-09T14:40:18.469Z,2.42
2022-10-09T14:42:45.301Z,1.92
2022-10-09T14:45:12.097Z,4.18
2022-10-09T14:47:38.822Z,1.85
2022-10-09T14:50:05.987Z,5.78
2022-10-09T14:52:32.736Z,2.17
2022-10-09T14:54:59.481Z,1.27
2022-10-09T14:57:26.214Z,3.90
2022-10-09T14:59:53.107Z,2.17
2022-10-09T15:02:19.802Z,4.03
2022-10-09T15:04:46.573Z,2.53
2022-10-09T15:07:13.280Z,2.65
2022-10-09T15:09:39.936Z,5.22
2022-10-09T15:12:06.642Z,3.17
2022-10-09T15:14:33.539Z,3.08
2022-10-09T15:17:00.250Z,3.47
2022-10-09T15:19:26.932Z,3.20
2022-10-09T15:21:53.694Z,5.65
2022-10-09T15:24:20.369Z,4.65
2022-10-09T15:26:47.051Z,4.40
2022-10-09T15:29:13.769Z,2.72
2022-10-09T15:31:41.901Z,4.50
2022-10-09T15:34:15.562Z,3.78
2022-10-09T15:36:44.352Z,3.92
2022-10-09T15:39:11.349Z,3.55
2022-10-09T15:41:40.580Z,2.03
2022-10-09T15:44:17.526Z,5.82
2022-10-09T15:46:45.494Z,2.90
2022-10-09T15:49:12.318Z,4.25
2022-10-09T15:51:39.349Z,3.70
2022-10-09T15:54:06.810Z,4.25
2022-10-09T15:56:39.491Z,2.45
2022-10-09T15:59:06.335Z,2.40
2022-10-09T16:01:33.173Z,3.67
2022-10-09T16:03:59.886Z,2.35
2022-10-09T16:06:26.616Z,2.65
2022-10-09T16:08:57.588Z,3.53
2022-10-09T16:11:26.447Z,2.42
2022-10-09T16:13:55.710Z,3.95
2022-10-09T16:16:25.636Z,3.30
2022-10-09T16:18:53.434Z,3.72
2022-10-09T16:21:25.869Z,2.15
2022-10-09T16:23:58.126Z,6.00
2022-10-09T16:26:25.862Z,2.60
2022-10-09T16:28:52.707Z,7.05
2022-10-09T16:31:25.055Z,3.63
2022-10-09T16:33:52.213Z,8.57
2022-10-09T16:36:19.164Z,6.50
2022-10-09T16:38:46.015Z,4.70
2022-10-09T16:41:17.703Z,3.80
2022-10-09T16:43:46.727Z,3.10
2022-10-09T16:46:16.184Z,7.97
2022-10-09T16:48:42.886Z,6.30
2022-10-09T16:51:12.132Z,6.70
2022-10-09T16:53:39.336Z,7.13
2022-10-09T16:56:15.405Z,5.88
2022-10-09T17:01:11.064Z,7.53
2022-10-09T17:03:40.535Z,11.93
2022-10-09T17:06:19.583Z,13.60
2022-10-09T17:08:47.849Z,13.20
2022-10-09T17:11:16.662Z,12.40
2022-10-09T17:13:44.040Z,11.77
2022-10-09T17:16:18.412Z,14.15
2022-10-09T17:18:46.894Z,14.38
2022-10-09T17:21:15.492Z,13.93
2022-10-09T17:23:42.521Z,14.40
2022-10-09T17:26:14.780Z,10.52
2022-10-09T17:28:42.207Z,9.35
2022-10-09T17:31:12.246Z,16.60
2022-10-09T17:33:41.379Z,12.77
2022-10-09T17:36:09.072Z,10.35
2022-10-09T17:38:36.267Z,12.75
2022-10-09T17:41:07.670Z,18.42
2022-10-09T17:43:35.216Z,13.10
2022-10-09T17:46:02.296Z,15.50
2022-10-09T17:48:29.673Z,9.10
2022-10-09T17:50:58.536Z,7.68
2022-10-09T17:53:25.692Z,6.28
2022-10-09T17:55:54.807Z,5.30
2022-10-09T17:58:23.011Z,9.48
2022-10-09T18:00:50.936Z,17.80
2022-10-09T18:03:18.338Z,12.40
2022-10-09T18:05:47.561Z,13.23
2022-10-09T18:08:16.222Z,13.63
2022-10-09T18:10:43.352Z,19.08
2022-10-09T18:13:11.228Z,16.08
2022-10-09T18:15:43.774Z,16.15
2022-10-09T18:18:11.320Z,14.63
2022-10-09T18:20:39.488Z,14.95
2022-10-09T18:23:07.786Z,18.33
2022-10-09T18:25:35.670Z,20.02
2022-10-09T18:28:02.533Z,16.95
2022-10-09T18:30:29.374Z,18.85
2022-10-09T18:32:56.316Z,18.35
2022-10-09T18:35:23.133Z,15.48
2022-10-09T18:37:49.981Z,14.95
2022-10-09T18:40:16.733Z,16.38
2022-10-09T18:42:43.480Z,15.43
2022-10-09T18:45:13.588Z,14.35
2022-10-09T18:47:41.344Z,19.10
2022-10-09T18:50:10.693Z,15.38
2022-10-09T18:52:38.189Z,14.02
2022-10-09T18:55:07.486Z,16.45
2022-10-09T18:57:35.974Z,16.90
2022-10-09T19:00:03.843Z,16.98
2022-10-09T19:02:30.646Z,18.23
2022-10-09T19:04:57.872Z,21.30
2022-10-09T19:07:25.261Z,24.77
2022-10-09T19:09:57.003Z,15.73
2022-10-09T19:12:25.032Z,20.70
2022-10-09T19:14:52.584Z,14.80
2022-10-09T19:17:19.328Z,13.75
2022-10-09T19:19:46.131Z,15.40
2022-10-09T19:22:16.545Z,15.43
2022-10-09T19:24:45.120Z,13.27
2022-10-09T19:27:11.959Z,11.90
2022-10-09T19:29:38.821Z,17.35
2022-10-09T19:32:05.560Z,15.40
2022-10-09T19:34:32.453Z,15.48
2022-10-09T19:36:59.504Z,21.02
2022-10-09T19:39:26.440Z,20.13
2022-10-09T19:41:53.566Z,15.07
2022-10-09T19:44:21.029Z,15.80
2022-10-09T19:46:48.384Z,13.18
2022-10-09T19:49:15.610Z,12.88
2022-10-09T19:51:42.915Z,16.05
2022-10-09T19:54:10.136Z,14.50
2022-10-09T19:56:38.116Z,13.90
2022-10-09T19:59:07.256Z,15.85
2022-10-09T20:01:35.444Z,27.17
2022-10-09T20:04:05.465Z,15.38
2022-10-09T20:06:32.522Z,13.85
2022-10-09T20:08:59.548Z,12.68
2022-10-09T20:11:26.904Z,10.48
2022-10-09T20:13:56.146Z,11.07
2022-10-09T20:16:24.256Z,9.52
2022-10-09T20:18:51.295Z,12.20
2022-10-09T20:21:18.479Z,10.38
2022-10-09T20:23:45.591Z,10.68
2022-10-09T20:26:14.931Z,11.60
2022-10-09T20:28:43.210Z,9.50
2022-10-09T20:31:28.489Z,13.95
2022-10-09T20:33:55.810Z,11.75
2022-10-09T20:36:32.535Z,9.43
2022-10-09T20:39:01.123Z,10.15
2022-10-09T20:41:29.130Z,9.80
2022-10-09T20:43:57.949Z,12.35
2022-10-09T20:46:25.776Z,12.02
2022-10-09T20:48:53.003Z,17.70
2022-10-09T20:51:21.202Z,11.52
2022-10-09T20:54:01.033Z,12.88
2022-10-09T20:56:30.470Z,12.05
2022-10-09T20:58:57.936Z,12.30
2022-10-09T21:01:25.762Z,13.80
2022-10-09T21:03:52.503Z,11.18
2022-10-09T21:06:21.183Z,12.63
2022-10-09T21:08:48.589Z,11.63
2022-10-09T21:11:17.174Z,8.90
2022-10-09T21:13:45.389Z,9.98
2022-10-09T21:16:15.098Z,13.50
2022-10-09T21:18:41.915Z,9.75
2022-10-09T21:21:17.108Z,10.70
2022-10-09T21:23:44.927Z,13.52
2022-10-09T21:26:13.844Z,12.52
2022-10-09T21:28:41.023Z,10.88
2022-10-09T21:31:15.110Z,12.82
2022-10-09T21:33:41.796Z,13.10
2022-10-09T21:36:11.171Z,10.48
2022-10-09T21:38:38.426Z,10.00
2022-10-09T21:41:05.475Z,10.23
2022-10-09T21:43:32.141Z,8.88
2022-10-09T21:45:59.031Z,7.70
2022-10-09T21:48:25.776Z,8.82
2022-10-09T21:50:52.440Z,11.90
2022-10-09T21:53:19.078Z,9.48
2022-10-09T21:55:45.856Z,8.93
2022-10-09T21:58:12.530Z,11.23
2022-10-09T22:00:39.293Z,9.13
2022-10-09T22:03:06.072Z,7.03
2022-10-09T22:05:32.750Z,8.80
2022-10-09T22:07:59.587Z,10.32
2022-10-09T22:10:26.342Z,7.53
2022-10-09T22:12:53.280Z,8.23
2022-10-09T22:15:20.211Z,8.15
2022-10-09T22:17:46.922Z,10.10
2022-10-09T22:20:13.783Z,8.23
2022-10-09T22:22:40.581Z,6.88
2022-10-09T22:25:07.892Z,7.78
2022-10-09T22:27:34.664Z,7.45
2022-10-09T22:30:01.343Z,8.23
2022-10-09T22:32:28.026Z,8.27
2022-10-09T22:34:54.722Z,8.70
2022-10-09T22:37:21.389Z,7.97
2022-10-09T22:39:49.290Z,7.45
2022-10-09T22:42:16.173Z,9.50
2022-10-09T22:44:42.906Z,8.93
2022-10-09T22:47:09.719Z,8.77
2022-10-09T22:49:36.405Z,7.13
2022-10-09T22:52:03.203Z,8.82
2022-10-09T22:54:30.086Z,8.23
2022-10-09T22:56:56.955Z,10.00
2022-10-09T22:59:23.642Z,6.38
2022-10-09T23:01:54.385Z,5.53
2022-10-09T23:04:22.508Z,9.77
2022-10-09T23:06:51.357Z,8.38
2022-10-09T23:09:19.295Z,4.57
2022-10-09T23:11:46.099Z,7.43
2022-10-09T23:14:13.337Z,7.97
2022-10-09T23:16:40.723Z,12.30
2022-10-09T23:19:08.349Z,7.63
2022-10-09T23:21:37.364Z,5.78
2022-10-09T23:24:04.600Z,8.00
2022-10-09T23:26:32.504Z,8.05
2022-10-09T23:29:02.186Z,9.15
2022-10-09T23:31:30.057Z,7.68
2022-10-09T23:33:57.419Z,7.55
2022-10-09T23:36:26.827Z,8.10
2022-10-09T23:38:53.861Z,7.50
2022-10-09T23:41:26.559Z,10.23
2022-10-09T23:43:53.516Z,7.47
2022-10-09T23:46:25.819Z,5.22
2022-10-09T23:48:53.629Z,6.70
2022-10-09T23:51:21.896Z,8.38
2022-10-09T23:53:48.837Z,5.85
2022-10-09T23:56:27.959Z,4.55
2022-10-09T23:58:56.315Z,12.02
